Time;durP1;ratioP1;P1;durP2;ratioP2;P2;SDS_P1;SDS_P2;PMS_P1;PMS_P2;Temp;Humidity;BMP_temperature;BMP_pressure;BME280_temperature;BME280_humidity;BME280_pressure;Samples;Min_cycle;Max_cycle;Signal;HPM_P1;HPM_P2
2022/09/05 00:01:52;;;;;;;22.45;15.90;;;;;;;17.77;67.82;101760.00;5052566;28;20421;-61
2022/09/05 00:04:26;;;;;;;24.77;15.50;;;;;;;17.68;68.66;101744.38;5052193;28;20140;-60
2022/09/05 00:07:12;;;;;;;23.95;15.30;;;;;;;17.68;67.51;101755.56;5052999;28;20033;-60
2022/09/05 00:10:08;;;;;;;23.20;15.32;;;;;;;17.73;67.70;101756.22;5052819;28;20489;-60
2022/09/05 00:12:36;;;;;;;22.33;15.77;;;;;;;17.61;69.13;101748.50;5052320;28;20484;-59
2022/09/05 00:15:16;;;;;;;24.30;16.13;;;;;;;17.45;69.55;101736.22;5051403;28;20080;-60
2022/09/05 00:17:50;;;;;;;23.42;16.20;;;;;;;17.45;69.82;101751.00;5052068;28;20025;-60
2022/09/05 00:20:29;;;;;;;26.50;15.70;;;;;;;17.33;70.22;101750.03;5052127;28;20496;-60
2022/09/05 00:23:05;;;;;;;23.80;15.18;;;;;;;17.34;69.64;101746.91;5052773;28;20048;-60
2022/09/05 00:25:55;;;;;;;22.73;15.18;;;;;;;17.33;69.52;101745.28;5052666;28;20116;-60
2022/09/05 00:28:31;;;;;;;22.33;15.52;;;;;;;17.24;70.36;101744.47;5051925;28;20025;-60
2022/09/05 00:31:27;;;;;;;23.20;15.70;;;;;;;17.18;69.83;101729.84;5052622;28;20017;-60
2022/09/05 00:34:33;;;;;;;24.20;16.25;;;;;;;17.20;69.91;101747.06;5034638;28;20032;-60
2022/09/05 00:36:59;;;;;;;25.55;16.30;;;;;;;17.10;70.88;101753.84;5036401;28;20045;-58
2022/09/05 00:39:28;;;;;;;24.55;16.25;;;;;;;17.10;70.91;101750.19;5052194;28;20477;-60
2022/09/05 00:41:59;;;;;;;22.67;15.43;;;;;;;17.07;70.82;101750.88;5052228;28;20029;-60
2022/09/05 00:44:31;;;;;;;24.23;16.60;;;;;;;16.97;71.22;101746.41;5052061;28;20040;-58
2022/09/05 00:47:11;;;;;;;24.10;16.00;;;;;;;16.98;71.30;101745.28;5052130;28;20029;-58
2022/09/05 00:49:45;;;;;;;24.33;16.25;;;;;;;16.89;71.70;101748.06;5052105;28;20036;-60
2022/09/05 00:52:22;;;;;;;23.85;15.68;;;;;;;16.85;71.33;101741.47;5052528;28;20031;-60
2022/09/05 00:55:06;;;;;;;23.15;15.95;;;;;;;16.93;70.67;101749.06;5052209;28;20029;-59
2022/09/05 00:57:45;;;;;;;;;;;;;;;17.03;69.20;101747.91;5052480;28;20556;-60
2022/09/05 01:00:15;;;;;;;23.27;16.00;;;;;;;16.99;70.74;101750.56;5051697;28;19920;-60
2022/09/05 01:03:08;;;;;;;25.08;16.35;;;;;;;16.96;70.71;101742.81;5051166;28;20032;-59
2022/09/05 01:05:55;;;;;;;23.73;16.35;;;;;;;16.86;71.42;101747.88;5050675;28;20504;-58
2022/09/05 01:08:58;;;;;;;23.67;16.10;;;;;;;16.80;71.43;101744.44;5051715;28;20361;-59
2022/09/05 01:11:46;;;;;;;25.63;16.40;;;;;;;16.79;70.99;101742.78;5051780;28;20483;-59
2022/09/05 01:14:20;;;;;;;24.67;16.30;;;;;;;16.79;71.16;101738.00;5051710;28;20029;-59
2022/09/05 01:20:07;;;;;;;25.25;16.23;;;;;;;16.72;71.97;101739.66;5050482;28;20056;-59
2022/09/05 01:22:54;;;;;;;25.38;16.58;;;;;;;16.64;72.64;101744.88;5051590;28;20024;-59
2022/09/05 01:25:37;;;;;;;22.30;16.02;;;;;;;16.60;72.23;101745.84;5051680;28;20029;-59
2022/09/05 01:28:28;;;;;;;25.65;16.60;;;;;;;16.58;72.23;101745.38;5051375;28;20108;-57
2022/09/05 01:31:14;;;;;;;25.88;17.08;;;;;;;16.46;73.17;101748.78;5022990;28;20045;-59
2022/09/05 01:33:54;;;;;;;26.42;16.77;;;;;;;16.38;73.04;101739.25;5052094;28;20057;-56
2022/09/05 01:36:44;;;;;;;24.88;16.20;;;;;;;16.43;72.64;101741.06;5034909;28;20161;-56
2022/09/05 01:39:19;;;;;;;24.02;16.40;;;;;;;16.44;72.77;101746.31;5034004;28;20477;-56
2022/09/05 01:42:31;;;;;;;23.83;15.82;;;;;;;16.46;72.55;101749.63;5051617;28;20410;-57
2022/09/05 01:45:08;;;;;;;23.20;16.40;;;;;;;16.47;72.61;101742.06;5051888;28;20041;-57
2022/09/05 01:48:01;;;;;;;23.73;16.42;;;;;;;16.49;72.52;101742.56;5051825;28;20039;-56
2022/09/05 01:50:53;;;;;;;23.23;15.80;;;;;;;16.43;72.78;101739.09;5034146;28;20030;-59
2022/09/05 01:53:30;;;;;;;23.20;16.00;;;;;;;16.34;73.09;101738.25;5052159;28;20432;-59
2022/09/05 01:56:13;;;;;;;24.13;15.70;;;;;;;16.43;72.93;101743.88;5050504;28;20029;-56
2022/09/05 01:59:00;;;;;;;23.55;16.48;;;;;;;16.38;72.72;101742.03;5050784;28;20029;-56
2022/09/05 02:01:56;;;;;;;23.80;15.98;;;;;;;16.35;72.97;101743.50;5051175;28;20063;-56
2022/09/05 02:04:44;;;;;;;23.95;16.73;;;;;;;16.29;74.39;101743.97;5051646;28;20063;-58
2022/09/05 02:07:47;;;;;;;24.38;17.30;;;;;;;16.26;73.51;101745.44;5051582;28;20028;-61
2022/09/05 02:10:31;;;;;;;24.13;16.90;;;;;;;16.20;73.85;101741.16;5051629;28;20067;-58
2022/09/05 02:13:15;;;;;;;24.30;16.50;;;;;;;16.16;73.71;101740.97;5053267;28;20028;-59
2022/09/05 02:15:45;;;;;;;24.63;17.17;;;;;;;16.05;74.52;101728.44;5054748;28;20025;-59
2022/09/05 02:18:19;;;;;;;25.10;16.42;;;;;;;16.12;74.43;101737.16;5036945;28;20041;-58
2022/09/05 02:20:52;;;;;;;24.75;17.48;;;;;;;16.09;75.06;101743.41;5055095;28;20025;-58
2022/09/05 02:23:17;;;;;;;24.40;16.40;;;;;;;16.15;74.94;101738.53;5055169;28;20033;-58
2022/09/05 02:25:51;;;;;;;24.27;17.38;;;;;;;16.02;74.96;101729.91;5055273;28;20079;-59
2022/09/05 02:28:16;;;;;;;;;;;;;;;16.20;72.98;101743.94;5054749;28;20032;-59
2022/09/05 02:30:47;;;;;;;25.63;17.63;;;;;;;16.05;75.07;101743.25;5054202;28;19909;-59
2022/09/05 02:33:30;;;;;;;25.40;17.58;;;;;;;16.05;75.18;101746.03;5055226;28;20358;-59
2022/09/05 02:36:12;;;;;;;24.80;17.05;;;;;;;15.88;75.11;101729.19;5055394;28;20052;-61
2022/09/05 02:38:51;;;;;;;26.10;17.75;;;;;;;15.93;75.70;101750.53;5055092;28;20056;-60
2022/09/05 02:41:35;;;;;;;26.10;18.25;;;;;;;15.89;75.76;101748.41;5055062;28;20086;-59
2022/09/05 02:44:32;;;;;;;25.13;17.90;;;;;;;15.88;75.21;101755.13;5054894;28;20097;-59
2022/09/05 02:47:09;;;;;;;26.52;18.02;;;;;;;15.81;75.25;101743.59;5053842;28;20112;-58
2022/09/05 02:49:55;;;;;;;25.52;18.98;;;;;;;15.82;76.39;101756.38;5054723;28;20035;-59
2022/09/05 02:52:25;;;;;;;25.27;19.23;;;;;;;15.78;76.62;101747.00;5054849;28;20067;-59
2022/09/05 02:54:52;;;;;;;25.73;18.00;;;;;;;15.68;76.29;101747.28;5054994;28;20540;-59
2022/09/05 02:57:45;;;;;;;25.70;18.35;;;;;;;15.76;76.06;101757.66;5054711;28;20107;-59
2022/09/05 03:00:16;;;;;;;28.85;19.77;;;;;;;15.68;76.93;101755.66;5054828;28;20033;-60
2022/09/05 03:03:25;;;;;;;25.23;18.67;;;;;;;15.69;76.25;101749.72;5019855;28;20257;-59
2022/09/05 03:06:02;;;;;;;26.58;18.40;;;;;;;15.56;76.73;101737.53;5053990;28;20021;-59
2022/09/05 03:08:30;;;;;;;26.05;19.05;;;;;;;15.60;76.00;101746.91;5035343;28;20039;-59
2022/09/05 03:11:32;;;;;;;25.67;18.77;;;;;;;15.58;76.46;101756.75;5053465;28;20095;-59
2022/09/05 03:14:19;;;;;;;26.15;19.75;;;;;;;15.51;77.77;101750.78;5053105;28;20068;-56
2022/09/05 03:16:58;;;;;;;28.27;19.85;;;;;;;15.46;77.95;101751.72;5035272;28;20033;-58
2022/09/05 03:19:56;;;;;;;27.48;19.58;;;;;;;15.45;77.40;101758.44;5053892;28;20128;-59
2022/09/05 03:22:55;;;;;;;27.90;20.05;;;;;;;15.41;77.75;101757.44;5037632;28;20045;-58
2022/09/05 03:25:23;;;;;;;27.33;20.65;;;;;;;15.29;78.92;101750.47;5052365;28;20016;-58
2022/09/05 03:27:51;;;;;;;27.30;20.70;;;;;;;15.25;79.06;101745.84;5052604;28;20120;-59
2022/09/05 03:30:31;;;;;;;28.98;21.40;;;;;;;15.22;79.40;101750.09;5052463;28;20149;-58
2022/09/05 03:33:19;;;;;;;31.35;21.65;;;;;;;15.20;79.10;101759.91;5034519;28;20037;-58
2022/09/05 03:36:05;;;;;;;29.33;21.58;;;;;;;15.18;79.72;101763.00;5053238;28;20087;-58
2022/09/05 03:39:10;;;;;;;28.85;20.63;;;;;;;15.15;79.37;101763.63;5053733;28;20095;-58
2022/09/05 03:41:39;;;;;;;29.55;22.05;;;;;;;15.09;80.11;101762.94;5053050;28;20032;-58
2022/09/05 03:44:34;;;;;;;29.85;22.42;;;;;;;15.06;80.21;101752.41;5052382;28;20517;-58
2022/09/05 03:47:22;;;;;;;28.45;21.75;;;;;;;14.99;80.01;101746.47;5053300;28;20029;-58
2022/09/05 03:50:00;;;;;;;28.70;21.88;;;;;;;15.03;80.76;101758.59;5052772;28;20040;-58
2022/09/05 03:52:37;;;;;;;29.48;21.25;;;;;;;15.01;80.33;101755.31;5034630;28;20021;-57
2022/09/05 03:55:41;;;;;;;28.15;21.45;;;;;;;15.01;80.11;101749.75;5052691;28;20075;-58
2022/09/05 03:58:21;;;;;;;28.30;21.30;;;;;;;15.00;80.21;101750.06;5021518;28;20045;-57
2022/09/05 04:01:13;;;;;;;30.10;22.75;;;;;;;15.02;80.12;101756.94;5052842;28;20032;-58
2022/09/05 04:03:54;;;;;;;30.27;22.92;;;;;;;15.00;80.98;101753.69;5053462;28;20120;-58
2022/09/05 04:06:32;;;;;;;29.85;22.65;;;;;;;14.92;81.95;101752.44;5053134;28;20029;-58
2022/09/05 04:09:23;;;;;;;30.55;22.55;;;;;;;14.89;81.44;101753.06;5053216;28;20484;-60
2022/09/05 04:12:03;;;;;;;30.95;22.50;;;;;;;14.85;81.24;101752.06;5052679;28;20037;-58
2022/09/05 04:14:52;;;;;;;31.10;23.25;;;;;;;14.86;82.04;101748.16;5035093;28;20039;-57
2022/09/05 04:17:28;;;;;;;32.70;22.88;;;;;;;14.85;81.88;101746.50;5051553;28;20490;-56
2022/09/05 04:20:02;;;;;;;30.42;22.38;;;;;;;14.83;82.40;101748.75;5052427;28;20030;-58
2022/09/05 04:22:35;;;;;;;31.13;24.17;;;;;;;14.82;82.10;101756.31;5052706;28;20047;-59
2022/09/05 04:25:21;;;;;;;30.70;23.77;;;;;;;14.79;82.14;101756.94;5052309;28;20032;-57
2022/09/05 04:28:13;;;;;;;31.17;22.50;;;;;;;14.76;82.91;101749.19;5052409;28;20115;-56
2022/09/05 04:30:51;;;;;;;31.17;23.33;;;;;;;14.79;82.54;101756.94;5051963;28;20025;-56
2022/09/05 04:33:27;;;;;;;32.65;22.67;;;;;;;14.75;83.18;101761.47;5033891;28;20465;-57
2022/09/05 04:36:11;;;;;;;31.02;23.02;;;;;;;14.70;82.80;101758.81;5051203;28;20155;-58
2022/09/05 04:38:40;;;;;;;;;;;;;;;14.82;80.35;101766.59;5052266;28;20048;-59
2022/09/05 04:41:10;;;;;;;31.95;22.98;;;;;;;14.75;82.72;101767.03;5051677;28;20361;-58
2022/09/05 04:43:47;;;;;;;29.58;22.38;;;;;;;14.71;82.44;101767.97;5052088;28;20484;-60
2022/09/05 04:46:28;;;;;;;30.98;23.92;;;;;;;14.69;83.93;101773.03;5052311;28;20107;-58
2022/09/05 04:49:08;;;;;;;30.85;23.38;;;;;;;14.64;83.20;101768.38;5052121;28;20341;-59
2022/09/05 04:51:39;;;;;;;31.92;24.17;;;;;;;14.61;83.52;101774.56;5051342;28;20035;-59
2022/09/05 04:54:20;;;;;;;29.48;22.77;;;;;;;14.62;83.57;101777.03;5051833;28;20036;-60
2022/09/05 04:56:51;;;;;;;31.13;23.65;;;;;;;14.60;83.29;101768.16;5051517;28;20029;-59
2022/09/05 04:59:29;;;;;;;31.15;24.15;;;;;;;14.62;83.36;101771.47;5051265;28;20377;-58
2022/09/05 05:02:00;;;;;;;32.10;24.15;;;;;;;14.61;83.44;101772.59;5051143;28;20052;-60
2022/09/05 05:04:27;;;;;;;32.42;24.65;;;;;;;14.61;83.46;101775.38;5051610;28;20025;-60
2022/09/05 05:07:27;;;;;;;33.45;25.23;;;;;;;14.60;83.73;101773.72;5052054;28;20025;-59
2022/09/05 05:10:01;;;;;;;30.70;23.73;;;;;;;14.49;84.27;101758.38;5052034;28;20025;-59
2022/09/05 05:12:38;;;;;;;;;;;;;;;14.64;80.98;101776.72;5052223;28;20057;-58
2022/09/05 05:15:10;;;;;;;31.42;23.55;;;;;;;14.55;84.03;101776.63;5051546;28;19916;-58
2022/09/05 05:17:56;;;;;;;32.53;25.13;;;;;;;14.59;83.72;101777.66;5047489;28;20553;-59
2022/09/05 05:20:29;;;;;;;33.10;25.08;;;;;;;14.57;83.82;101787.44;5032441;28;20120;-58
2022/09/05 05:23:01;;;;;;;33.05;24.70;;;;;;;14.61;84.34;101780.94;5032384;28;20018;-59
2022/09/05 05:25:27;;;;;;;33.17;24.05;;;;;;;14.60;84.24;101776.50;5014481;28;20397;-60
2022/09/05 05:28:16;;;;;;;33.10;25.55;;;;;;;14.57;83.82;101767.94;5032342;28;20367;-59
2022/09/05 05:30:42;;;;;;;34.05;24.60;;;;;;;14.63;84.19;101780.66;5013904;28;20052;-58
2022/09/05 05:33:21;;;;;;;33.42;24.75;;;;;;;14.63;83.95;101773.09;5031889;28;20037;-59
2022/09/05 05:35:48;;;;;;;32.95;24.80;;;;;;;14.70;84.48;101786.66;5031915;28;20079;-59
2022/09/05 05:38:16;;;;;;;35.45;26.23;;;;;;;14.70;84.87;101785.81;5031958;28;20018;-59
2022/09/05 05:40:58;;;;;;;35.38;27.83;;;;;;;14.66;85.35;101766.97;5031880;28;20067;-59
2022/09/05 05:43:34;;;;;;;34.80;26.33;;;;;;;14.66;85.18;101766.97;5031123;28;20029;-62
2022/09/05 05:46:00;;;;;;;35.65;25.85;;;;;;;14.74;85.29;101782.09;5029691;28;20030;-58
2022/09/05 05:48:32;;;;;;;34.55;26.13;;;;;;;14.78;85.15;101788.69;5034563;28;20043;-59
2022/09/05 05:51:34;;;;;;;32.28;25.33;;;;;;;14.88;84.91;101786.81;5018008;28;20076;-60
2022/09/05 05:54:15;;;;;;;34.03;25.95;;;;;;;14.96;84.72;101786.91;5035608;28;20037;-59
2022/09/05 05:57:21;;;;;;;35.35;25.98;;;;;;;14.96;84.72;101769.38;5035435;28;20458;-59
2022/09/05 06:00:12;;;;;;;30.45;25.20;;;;;;;15.11;84.23;101787.69;5035628;28;20108;-60
2022/09/05 06:03:18;;;;;;;32.30;24.75;;;;;;;15.24;83.97;101795.19;5035656;28;20421;-59
2022/09/05 06:06:18;;;;;;;32.30;25.23;;;;;;;15.27;83.45;101783.41;5036153;28;20025;-58
2022/09/05 06:09:11;;;;;;;34.17;25.42;;;;;;;15.47;82.63;101803.56;5035446;28;20037;-59
2022/09/05 06:11:54;;;;;;;35.80;25.65;;;;;;;15.52;82.73;101802.63;5035364;28;20025;-59
2022/09/05 06:14:22;;;;;;;33.08;25.88;;;;;;;15.63;82.35;101812.38;5017574;28;20560;-59
2022/09/05 06:17:24;;;;;;;32.08;25.60;;;;;;;15.72;81.62;101815.25;5033515;28;20031;-58
2022/09/05 06:20:07;;;;;;;34.15;26.75;;;;;;;15.84;81.36;101812.72;5054858;28;20464;-59
2022/09/05 06:23:01;;;;;;;37.13;27.63;;;;;;;15.95;81.41;101818.03;5055132;28;20119;-59
2022/09/05 06:25:50;;;;;;;36.47;27.60;;;;;;;16.06;80.93;101823.00;5037245;28;20032;-59
2022/09/05 06:28:50;;;;;;;34.50;26.95;;;;;;;16.20;80.18;101810.94;5055134;28;20087;-59
2022/09/05 06:31:35;;;;;;;33.90;27.38;;;;;;;16.32;79.84;101819.53;5055422;28;20052;-58
2022/09/05 06:34:21;;;;;;;37.03;28.33;;;;;;;16.46;79.38;101813.00;5055113;28;20473;-57
2022/09/05 06:37:30;;;;;;;33.78;27.98;;;;;;;16.62;78.54;101813.41;5055126;28;20033;-57
2022/09/05 06:40:07;;;;;;;34.88;27.83;;;;;;;16.77;77.85;101814.91;5054840;28;20029;-57
2022/09/05 06:42:56;;;;;;;36.42;27.33;;;;;;;16.95;77.46;101815.81;5055091;28;20029;-57
2022/09/05 06:45:24;;;;;;;35.88;28.77;;;;;;;17.08;76.74;101809.25;5055272;28;20025;-59
2022/09/05 06:47:55;;;;;;;36.10;28.40;;;;;;;17.24;75.87;101811.59;5054733;28;20108;-48
2022/09/05 06:50:28;;;;;;;34.53;26.42;;;;;;;17.41;75.33;101811.56;5054717;28;20465;-56
2022/09/05 06:52:54;;;;;;;37.85;28.23;;;;;;;17.56;73.95;101815.00;5036954;28;20066;-58
2022/09/05 06:55:47;;;;;;;35.92;28.00;;;;;;;17.74;74.06;101811.03;5054885;28;20380;-58
2022/09/05 06:58:42;;;;;;;39.97;29.42;;;;;;;17.90;73.53;101813.31;5054837;28;20032;-57
2022/09/05 07:01:10;;;;;;;40.42;27.52;;;;;;;18.06;72.64;101810.81;5005139;28;20134;-57
2022/09/05 07:04:02;;;;;;;34.42;27.63;;;;;;;18.23;72.95;101816.34;5032613;28;20068;-57
2022/09/05 07:06:40;;;;;;;34.40;26.10;;;;;;;18.42;72.16;101814.31;5014673;28;20041;-56
2022/09/05 07:09:14;;;;;;;36.78;26.60;;;;;;;18.54;71.63;101809.63;5032578;28;20512;-57
2022/09/05 07:11:49;;;;;;;34.20;27.08;;;;;;;18.58;70.30;101800.56;5031977;28;20389;-57
2022/09/05 07:14:23;;;;;;;36.85;27.48;;;;;;;18.72;70.41;101815.16;5032053;28;20048;-57
2022/09/05 07:17:13;;;;;;;34.63;26.98;;;;;;;18.79;70.51;101811.81;5037207;28;20025;-56
2022/09/05 07:19:54;;;;;;;33.80;26.77;;;;;;;18.95;70.23;101815.69;5025540;28;20044;-56
2022/09/05 07:22:47;;;;;;;33.67;26.63;;;;;;;19.00;70.24;101815.50;5026514;28;20032;-57
2022/09/05 07:25:17;;;;;;;31.88;24.70;;;;;;;19.06;68.87;101810.53;5050220;28;20087;-58
2022/09/05 07:27:50;;;;;;;34.55;24.40;;;;;;;19.22;68.49;101821.13;5051942;28;20037;-55
2022/09/05 07:30:19;;;;;;;33.67;24.02;;;;;;;19.27;68.36;101809.72;5052094;28;20041;-58
2022/09/05 07:32:50;;;;;;;31.48;22.58;;;;;;;19.37;68.39;101814.88;5051931;28;20047;-56
2022/09/05 07:35:20;;;;;;;31.58;23.83;;;;;;;19.46;67.50;101812.00;5051802;28;20059;-58
2022/09/05 07:37:58;;;;;;;31.15;23.02;;;;;;;19.53;67.78;101815.06;5051919;28;20472;-58
2022/09/05 07:40:25;;;;;;;28.95;21.90;;;;;;;19.62;66.77;101818.63;5033747;28;20056;-58
2022/09/05 07:42:56;;;;;;;31.50;22.75;;;;;;;19.75;67.03;101818.66;5051506;28;20024;-58
2022/09/05 07:45:26;;;;;;;29.40;21.33;;;;;;;19.76;66.73;101807.09;5051507;28;20143;-58
2022/09/05 07:48:01;;;;;;;30.08;21.67;;;;;;;19.94;66.54;101821.81;5047268;28;20044;-59
2022/09/05 07:50:28;;;;;;;29.08;20.75;;;;;;;20.05;65.54;101824.19;5050541;28;20089;-58
2022/09/05 07:52:57;;;;;;;29.23;20.65;;;;;;;20.08;65.43;101815.03;5051534;28;20044;-58
2022/09/05 07:55:34;;;;;;;28.35;21.15;;;;;;;20.19;64.69;101826.66;5051420;28;20040;-58
2022/09/05 07:58:02;;;;;;;29.70;20.58;;;;;;;20.33;64.34;101834.75;5051267;28;20108;-58
2022/09/05 08:00:29;;;;;;;27.10;19.88;;;;;;;20.35;64.51;101819.19;5051018;28;20448;-58
2022/09/05 08:02:59;;;;;;;28.63;21.05;;;;;;;20.51;63.43;101829.72;5051314;28;20036;-58
2022/09/05 08:05:33;;;;;;;29.35;20.80;;;;;;;20.63;62.29;101831.72;5051411;28;20036;-58
2022/09/05 08:08:01;;;;;;;27.65;20.33;;;;;;;20.75;62.48;101833.75;5051286;28;20033;-58
2022/09/05 08:10:30;;;;;;;31.65;21.60;;;;;;;20.86;61.99;101841.34;5050573;28;20039;-58
2022/09/05 08:13:06;;;;;;;28.80;21.00;;;;;;;21.02;61.92;101843.41;5051191;28;20480;-56
2022/09/05 08:15:32;;;;;;;28.90;21.23;;;;;;;21.13;61.21;101841.75;5033175;28;20040;-57
2022/09/05 08:18:06;;;;;;;31.73;22.45;;;;;;;21.24;61.18;101844.94;5050813;28;20064;-57
2022/09/05 08:20:53;;;;;;;34.72;22.80;;;;;;;21.35;61.23;101837.59;5051118;28;20645;-57
2022/09/05 08:23:37;;;;;;;31.65;23.00;;;;;;;21.42;61.11;101831.38;5051069;28;20029;-58
2022/09/05 08:26:13;;;;;;;33.08;23.58;;;;;;;21.64;59.58;101832.84;5049154;28;20094;-58
2022/09/05 08:29:07;;;;;;;33.10;21.83;;;;;;;21.74;60.38;101825.03;5050658;28;20031;-57
2022/09/05 08:31:54;;;;;;;36.20;22.40;;;;;;;21.88;59.70;101836.72;5033018;28;20024;-58
2022/09/05 08:34:42;;;;;;;31.35;22.10;;;;;;;22.05;57.87;101834.75;5050563;28;20120;-57
2022/09/05 08:37:11;;;;;;;29.42;21.58;;;;;;;22.21;56.68;101829.13;5050793;28;20056;-57
2022/09/05 08:39:38;;;;;;;27.98;20.25;;;;;;;22.32;56.53;101833.06;5049950;28;20044;-54
2022/09/05 08:42:13;;;;;;;28.08;20.30;;;;;;;22.48;56.35;101830.25;5050330;28;20385;-57
2022/09/05 08:44:56;;;;;;;27.40;19.65;;;;;;;22.58;56.48;101832.50;5050441;28;20504;-57
2022/09/05 08:47:37;;;;;;;29.37;20.37;;;;;;;22.72;55.59;101836.88;5050499;28;20039;-57
2022/09/05 08:50:56;;;;;;;28.73;19.13;;;;;;;22.88;56.39;101842.50;5050585;28;20029;-57
2022/09/05 08:53:24;;;;;;;51.97;23.05;;;;;;;23.06;53.86;101825.94;4988879;28;20066;-57
2022/09/05 08:56:00;;;;;;;54.35;23.17;;;;;;;23.16;52.92;101835.84;5045976;28;20056;-57
2022/09/05 08:59:03;;;;;;;28.25;19.65;;;;;;;23.24;54.21;101834.03;5050105;28;20045;-57
2022/09/05 09:01:53;;;;;;;37.80;21.42;;;;;;;23.35;54.61;101818.13;5032070;28;20040;-57
2022/09/05 09:04:41;;;;;;;90.13;27.95;;;;;;;23.53;53.87;101821.34;5050274;28;20458;-59
2022/09/05 09:07:09;;;;;;;130.90;34.88;;;;;;;23.70;52.32;101811.59;5049952;28;20037;-57
2022/09/05 09:09:43;;;;;;;165.93;35.65;;;;;;;23.91;51.73;101814.00;5031917;28;20035;-57
2022/09/05 09:12:35;;;;;;;51.83;18.95;;;;;;;24.06;51.44;101803.81;5050208;28;20112;-56
2022/09/05 09:15:33;;;;;;;27.23;15.40;;;;;;;24.25;50.84;101807.75;5049828;28;20186;-57
2022/09/05 09:18:07;;;;;;;46.17;21.38;;;;;;;24.34;49.33;101804.66;5031908;28;20471;-58
2022/09/05 09:20:45;;;;;;;;;;;;;;;24.43;51.72;101799.56;5050591;28;20815;-58
2022/09/05 09:23:11;;;;;;;25.77;15.25;;;;;;;24.57;47.78;101807.47;5049739;28;19923;-57
2022/09/05 09:26:09;;;;;;;23.90;14.10;;;;;;;24.71;49.61;101799.25;5048326;28;20021;-58
2022/09/05 09:28:49;;;;;;;23.45;13.77;;;;;;;24.83;48.04;101808.72;5050198;28;20037;-57
2022/09/05 09:31:27;;;;;;;34.88;14.30;;;;;;;24.99;46.47;101808.50;5050138;28;20364;-58
2022/09/05 09:34:19;;;;;;;63.72;22.27;;;;;;;25.06;46.92;101786.78;5049904;28;20029;-58
2022/09/05 09:37:03;;;;;;;22.98;11.73;;;;;;;25.21;46.34;101801.94;5049911;28;20147;-57
2022/09/05 09:39:35;;;;;;;50.05;16.70;;;;;;;25.27;44.79;101790.28;5049980;28;20029;-57
2022/09/05 09:42:21;;;;;;;34.17;13.23;;;;;;;25.38;43.20;101792.03;5050054;28;20115;-58
2022/09/05 09:44:47;;;;;;;20.98;11.07;;;;;;;25.46;42.55;101795.00;5050080;28;20032;-58
2022/09/05 09:47:17;;;;;;;20.33;10.50;;;;;;;25.56;42.11;101790.63;5050140;28;20515;-57
2022/09/05 09:50:01;;;;;;;18.95;10.38;;;;;;;25.68;43.03;101794.03;5031482;28;20021;-58
2022/09/05 09:52:49;;;;;;;22.13;11.40;;;;;;;25.74;43.61;101785.19;5049589;28;20037;-58
2022/09/05 09:55:42;;;;;;;19.63;9.75;;;;;;;25.83;43.51;101791.34;5049574;28;20040;-57
2022/09/05 09:58:07;;;;;;;30.48;13.52;;;;;;;25.91;41.31;101784.53;5031541;28;20021;-58
2022/09/05 10:01:12;;;;;;;80.18;23.13;;;;;;;25.88;42.30;101776.00;5031567;28;20029;-56
2022/09/05 10:03:44;;;;;;;27.38;10.88;;;;;;;26.06;40.90;101779.00;5050242;28;20047;-57
2022/09/05 10:06:34;;;;;;;56.10;17.67;;;;;;;26.09;41.32;101781.91;5049717;28;20033;-58
2022/09/05 10:08:59;;;;;;;35.10;14.18;;;;;;;26.24;40.76;101782.84;5049555;28;20154;-58
2022/09/05 10:11:37;;;;;;;20.67;9.77;;;;;;;26.35;40.67;101776.44;5049410;28;20064;-59
2022/09/05 10:14:42;;;;;;;16.33;9.40;;;;;;;26.44;40.37;101768.41;5049820;28;20171;-59
2022/09/05 10:17:34;;;;;;;16.65;9.35;;;;;;;26.53;39.69;101762.38;5002695;28;20040;-58
2022/09/05 10:20:16;;;;;;;22.98;10.05;;;;;;;26.68;39.48;101768.97;5049157;28;20035;-58
2022/09/05 10:23:20;;;;;;;17.88;8.90;;;;;;;26.83;38.50;101762.19;5031391;28;20025;-58
2022/09/05 10:26:03;;;;;;;;;;;;;;;26.88;38.58;101758.16;5047841;28;20489;-58
2022/09/05 10:29:01;;;;;;;15.10;8.50;;;;;;;27.02;37.73;101751.72;5049068;28;19920;-58
2022/09/05 10:31:55;;;;;;;15.93;8.75;;;;;;;27.15;37.56;101752.22;5049382;28;20061;-58
2022/09/05 10:34:24;;;;;;;16.25;8.90;;;;;;;27.33;35.30;101738.03;5033617;28;20028;-59
2022/09/05 10:37:01;;;;;;;14.32;8.43;;;;;;;27.47;35.65;101752.34;5034758;28;20394;-58
2022/09/05 10:39:30;;;;;;;21.77;9.00;;;;;;;27.44;34.31;101738.94;5052498;28;20493;-57
2022/09/05 10:42:05;;;;;;;31.02;10.40;;;;;;;27.56;34.99;101743.41;5052871;28;20033;-58
2022/09/05 10:44:44;;;;;;;39.17;11.35;;;;;;;27.62;34.43;101746.66;5052787;28;20047;-58
2022/09/05 10:47:38;;;;;;;44.85;12.48;;;;;;;27.62;34.47;101738.97;5052650;28;20041;-59
2022/09/05 10:50:17;;;;;;;18.27;8.63;;;;;;;27.67;34.12;101737.75;5052595;28;20021;-58
2022/09/05 10:53:08;;;;;;;14.43;8.48;;;;;;;27.75;35.30;101739.41;5052934;28;20023;-59
2022/09/05 10:55:42;;;;;;;16.77;8.18;;;;;;;27.78;33.91;101738.56;5052775;28;20082;-59
2022/09/05 10:58:33;;;;;;;13.18;8.13;;;;;;;27.91;34.40;101741.03;5052399;28;20044;-59
2022/09/05 11:01:24;;;;;;;12.48;8.23;;;;;;;27.94;34.31;101734.53;5051139;28;20025;-59
2022/09/05 11:04:18;;;;;;;15.77;8.35;;;;;;;27.96;34.20;101729.25;5054380;28;20052;-59
2022/09/05 11:06:43;;;;;;;14.23;8.45;;;;;;;27.98;33.25;101730.47;5054348;28;20497;-58
2022/09/05 11:09:16;;;;;;;11.83;8.00;;;;;;;28.05;33.23;101723.16;5054402;28;20047;-58
2022/09/05 11:11:45;;;;;;;15.40;8.30;;;;;;;28.17;32.14;101726.41;5054719;28;20267;-59
2022/09/05 11:14:26;;;;;;;12.75;7.80;;;;;;;28.25;32.90;101721.53;5039381;28;20041;-58
2022/09/05 11:16:54;;;;;;;14.52;7.88;;;;;;;28.21;31.91;101717.88;5014695;28;20049;-59
2022/09/05 11:19:29;;;;;;;14.75;8.18;;;;;;;28.38;32.78;101726.81;5032008;28;20049;-61
2022/09/05 11:22:01;;;;;;;12.70;8.18;;;;;;;28.37;31.89;101716.66;5032235;28;20029;-59
2022/09/05 11:24:58;;;;;;;11.48;8.27;;;;;;;28.43;32.71;101715.00;5014195;28;20080;-58
2022/09/05 11:27:35;;;;;;;12.32;8.32;;;;;;;28.53;32.58;101719.06;5023327;28;20037;-58
2022/09/05 11:30:12;;;;;;;12.07;8.13;;;;;;;28.59;32.66;101714.56;5032319;28;20473;-61
2022/09/05 11:33:05;;;;;;;12.75;8.60;;;;;;;28.71;32.67;101707.63;5032222;28;20044;-58
2022/09/05 11:35:44;;;;;;;11.68;8.30;;;;;;;28.76;31.79;101715.78;5032410;28;20123;-59
2022/09/05 11:38:13;;;;;;;14.85;8.38;;;;;;;28.82;31.05;101713.28;5030507;28;20191;-57
2022/09/05 11:41:03;;;;;;;12.80;8.00;;;;;;;28.84;31.94;101708.00;5031666;28;20041;-58
2022/09/05 11:43:56;;;;;;;14.05;7.90;;;;;;;28.87;32.12;101710.03;5031686;28;20504;-59
2022/09/05 11:46:35;;;;;;;13.65;8.10;;;;;;;28.89;31.52;101704.72;5030831;28;20033;-58
2022/09/05 11:49:32;;;;;;;12.68;7.97;;;;;;;28.96;31.62;101713.25;5031829;28;20025;-59
2022/09/05 11:52:28;;;;;;;13.93;8.15;;;;;;;29.02;31.87;101710.78;5014220;28;20083;-59
2022/09/05 11:55:24;;;;;;;15.25;8.15;;;;;;;29.10;32.40;101707.47;5031533;28;20023;-59
2022/09/05 11:58:20;;;;;;;12.27;8.05;;;;;;;29.08;31.87;101703.41;5031839;28;20091;-59
2022/09/05 12:00:55;;;;;;;13.18;8.10;;;;;;;29.02;31.13;101705.88;5031566;28;20033;-59
2022/09/05 12:03:37;;;;;;;14.93;8.40;;;;;;;29.16;31.26;101702.13;5031694;28;20037;-57
2022/09/05 12:06:20;;;;;;;13.35;8.30;;;;;;;29.27;31.68;101702.09;5031443;28;20450;-59
2022/09/05 12:09:33;;;;;;;18.40;9.23;;;;;;;29.41;32.03;101704.06;5031429;28;20045;-59
2022/09/05 12:12:23;;;;;;;19.73;8.63;;;;;;;29.45;31.41;101704.06;4994266;28;20577;-59
2022/09/05 12:15:15;;;;;;;23.85;9.30;;;;;;;29.60;30.95;101701.91;5031244;28;20763;-58
2022/09/05 12:18:09;;;;;;;18.48;9.13;;;;;;;29.70;31.22;101698.16;5031076;28;20530;-59
2022/09/05 12:20:53;;;;;;;12.77;8.20;;;;;;;29.70;29.74;101695.31;5013396;28;20026;-59